Sierra Nevada Aquatic Research Lab (SNARL) Reserve, Santa Monica Mtns, California Weather observations

Data are for 10 minute period ending at time listed.
 Day   Time   Solar   Ave.   Ave.  Ave.  Vector  Max.   Baro.   Total    
  of    of     Rad.   Air    Rel.  Wind   Wind   Wind  Press.  Precip.   
Year   Day            Temp.  Hum.  Speed  Dir.   Gust                    
2015   (PST)  Kw/m2    F      %     mph   deg.    mph    mb.     in.     
-------------------------------------------------------------------------
 108   10:10   0.89   60.2    12    3.4    34     9.5   786.3    0.00 
 108   10:20   0.90   60.4    11    6.1     0    11.8   786.3    0.00 
 108   10:30   0.93   61.2    11    5.4    67    11.5   786.3    0.00 
 108   10:40   0.94   61.5    11    4.3    20     9.1   786.3    0.00 
 108   10:50   0.95   61.4    11    3.7    39    11.8   786.2    0.00 
 108   11:00   0.96   63.1    11    3.3    88     8.3   786.1    0.00 
 108   11:10   0.97   63.4    11    4.5    98     7.5   786.0    0.00 
 108   11:20   1.01   63.2    11    4.2    34     9.6   785.9    0.00 
 108   11:30   0.95   64.3    11    6.6    58    12.9   785.8    0.00 
 108   11:40   0.71   62.7    11    6.6   128    13.9   785.7    0.00 
 108   11:50   0.98   62.7    11    3.2    11     8.0   785.6    0.00 
 108   12:00   1.00   62.9    11    5.7   104    16.4   785.6    0.00 
 108   12:10   0.99   63.6    11    6.3   111    11.6   785.5    0.00 
 108   12:20   0.98   64.7    10    6.8   116    13.0   785.3    0.00 
 108   12:30   0.98   64.7    10    5.5    47    10.3   785.2    0.00 
 108   12:40   0.97   64.6    10    6.6   114    13.2   785.1    0.00 
 108   12:50   0.97   65.0    10    3.6    77     9.3   785.0    0.00 
 108   13:00   0.95   66.6    10    6.7    83    15.1   784.9    0.00 
 108   13:10   0.94   66.7    10    7.6    84    13.7   784.8    0.00 
 108   13:20   0.94   65.4    10   10.5    97    20.0   784.7    0.00 
 108   13:30   0.92   64.8    10    5.2    56    13.1   784.7    0.00 
 108   13:40   0.91   66.6     9    3.3   102    10.7   784.6    0.00 
 108   13:50   0.89   65.9     9    8.2    83    17.0   784.5    0.00 
 108   14:00   0.87   65.4     9    6.2    78    13.4   784.4    0.00 
 108   14:10   0.87   65.8     9    5.4   167     9.9   784.2    0.00 
 108   14:20   0.85   66.8     9    5.8   205    15.6   784.1    0.00 
 108   14:30   0.74   66.9     9    3.9    94     8.1   783.9    0.00 
 108   14:40   0.84   67.8     9    4.6    22    10.7   783.8    0.00 
 108   14:50   0.71   67.2    10    6.4    51    13.5   783.7    0.00 
 108   15:00   0.44   67.0    10    5.7    27    13.2   783.7    0.00 
 108   15:10   0.63   66.7    10    4.7     9    12.1   783.6    0.00 
 108   15:20   0.34   65.9    10    5.0    11    10.6   783.6    0.00 
 108   15:30   0.26   65.2    11    3.8    27     8.3   783.6    0.00 
 108   15:40   0.13   63.9    11    5.2    20    10.1   783.5    0.00 
 108   15:50   0.29   63.4    12    6.0   358    10.7   783.5    0.00 
 108   16:00   0.43   63.7    11    3.4    37     6.2   783.5    0.00 
 108   16:10   0.28   64.9    11    6.2     2    14.7   783.3    0.00 
 108   16:20   0.44   65.2    13    8.7   339    22.0   783.3    0.00 
 108   16:30   0.10   62.9    16    8.1   306    18.2   783.4    0.00 
 108   16:40   0.07   61.2    21    8.4   286    14.0   783.6    0.00 
 108   16:50   0.05   59.7    24    7.0   296    12.7   783.6    0.00 
 108   17:00   0.04   58.9    24    7.0   304    12.4   783.6    0.00 
 108   17:10   0.04   58.3    26    8.2   282    14.6   783.7    0.00 
 108   17:20   0.03   57.6    27   12.0   282    21.9   783.7    0.00 
 108   17:30   0.02   57.4    24    9.6   269    16.2   783.7    0.00 
 108   17:40   0.01   57.5    20    5.9   275    11.0   783.6    0.00 
 108   17:50   0.01   57.6    18   10.2   264    19.3   783.5    0.00 
 108   18:00   0.01   57.7    18    8.7   236    12.9   783.4    0.00 
 108   18:10   0.01   57.5    18    6.3   239    11.8   783.4    0.00 
 108   18:20   0.01   56.3    27    7.1   303    12.3   783.5    0.00 
 108   18:30   0.00   55.1    30    7.1   290    12.1   783.6    0.00 
 108   18:40   0.00   54.2    30    7.1   278    10.8   783.7    0.00 
 108   18:50   0.00   53.6    31    7.2   278    11.0   783.8    0.00 
 108   19:00   0.00   53.2    31    7.9   279    12.3   783.9    0.00 
 108   19:10   0.00   52.9    31    7.4   281    11.8   784.1    0.00 
 108   19:20   0.00   52.6    31    7.4   269    11.9   784.2    0.00 
 108   19:30   0.00   52.2    31    6.2   272    11.9   784.2    0.00 
 108   19:40   0.00   52.1    30    4.2   290     9.1   784.4    0.00 
 108   19:50   0.00   51.2    31    3.7   281     6.9   784.4    0.00 
 108   20:00   0.00   50.3    30    5.9   268     7.8   784.4    0.00 
 108   20:10   0.00   48.9    31    3.3   259     6.4   784.4    0.00 
 108   20:20   0.00   47.3    33    1.6   202     2.9   784.5    0.00 
 108   20:30   0.00   46.0    33    1.1   277     2.9   784.7    0.00 
 108   20:40   0.00   46.0    35    2.7   267     5.1   784.8    0.00 
 108   20:50   0.00   45.9    32    4.9   260     7.0   784.9    0.00 
 108   21:00   0.00   45.7    32    6.2   260     7.7   785.0    0.00 
 108   21:10   0.00   44.0    32    6.5   259     8.8   785.0    0.00 
 108   21:20   0.00   44.2    31    7.1   253    10.2   785.0    0.00 
 108   21:30   0.00   45.5    28    6.5   261     9.1   785.0    0.00 
 108   21:40   0.00   45.4    27    8.1   254    10.6   785.1    0.00 
 108   21:50   0.00   45.9    25    8.1   256    11.5   785.1    0.00 
 108   22:00   0.00   46.1    25    7.6   253    10.3   785.1    0.00 
 108   22:10   0.00   46.1    25    8.2   252    10.9   785.1    0.00 
 108   22:20   0.00   45.9    26    7.9   252    11.1   785.1    0.00 
 108   22:30   0.00   46.2    27    8.0   246    10.7   785.1    0.00 
 108   22:40   0.00   45.7    28    7.6   251     9.5   785.1    0.00 
 108   22:50   0.00   46.1    28    8.0   242    11.0   785.1    0.00 
 108   23:00   0.00   45.0    29    7.4   234     9.7   785.2    0.00 
 108   23:10   0.00   44.2    30    5.3   250     7.9   785.3    0.00 
 108   23:20   0.00   43.2    31    5.6   256     8.5   785.3    0.00 
 108   23:30   0.00   42.5    32    3.4   274     8.0   785.3    0.00 
 108   23:40   0.00   40.9    34    2.6   176     6.6   785.4    0.00 
 108   23:50   0.00   38.0    38    0.9   244     3.1   785.4    0.00 
 109    0:00   0.00   37.7    39    3.5   295     6.0   785.5    0.00 
 109    0:10   0.00   39.3    36    4.4   249     7.3   785.6    0.00 
 109    0:20   0.00   41.2    34    5.8   256     9.3   785.6    0.00 
 109    0:30   0.00   41.5    34    6.2   258     8.0   785.5    0.00 
 109    0:40   0.00   41.6    34    6.3   255     7.5   785.5    0.00 
 109    0:50   0.00   41.9    33    3.4   258     6.4   785.5    0.00 
 109    1:00   0.00   39.6    37    2.5   261     6.1   785.5    0.00 
 109    1:10   0.00   39.4    36    5.4   249     9.4   785.5    0.00 
 109    1:20   0.00   39.5    36    3.0   243     7.6   785.5    0.00 
 109    1:30   0.00   36.9    40    2.4   230     5.2   785.4    0.00 
 109    1:40   0.00   36.9    41    3.4   246     7.3   785.4    0.00 
 109    1:50   0.00   39.8    36    5.5   241     7.6   785.4    0.00 
 109    2:00   0.00   39.1    38    6.4   235     9.2   785.4    0.00 
 109    2:10   0.00   40.2    37    5.8   228    10.5   785.4    0.00 
 109    2:20   0.00   40.0    37    5.1   249     7.2   785.5    0.00 
 109    2:30   0.00   40.0    37    4.5   251     6.7   785.5    0.00 
 109    2:40   0.00   38.4    39    2.3   260     6.1   785.5    0.00 
 109    2:50   0.00   37.0    41    2.4   293     4.5   785.5    0.00 
 109    3:00   0.00   36.7    41    1.7   248     5.0   785.6    0.00 
 109    3:10   0.00   35.4    42    2.6   231     5.6   785.6    0.00 
 109    3:20   0.00   35.8    43    5.0   248     7.6   785.6    0.00 
 109    3:30   0.00   38.0    39    4.9   243     7.4   785.5    0.00 
 109    3:40   0.00   36.6    41    2.1   261     5.6   785.6    0.00 
 109    3:50   0.00   35.2    44    1.5   323     4.3   785.7    0.00 
 109    4:00   0.00   34.2    45    2.2   304     5.0   785.7    0.00 
 109    4:10   0.00   33.1    47    1.9   256     3.9   785.7    0.00 
 109    4:20   0.00   33.1    47    3.6   270     7.2   785.7    0.00 
 109    4:30   0.00   36.3    43    5.3   260     7.4   785.7    0.00 
 109    4:40   0.00   38.4    39    3.9   262     7.2   785.8    0.00 
 109    4:50   0.00   35.8    43    1.2   262     4.2   785.8    0.00 
 109    5:00   0.00   33.4    47    2.6   249     8.9   785.9    0.00 
 109    5:10   0.00   33.4    46    3.1   248     7.7   785.9    0.00 
 109    5:20   0.00   31.2    50    3.0   252     7.7   785.9    0.00 
 109    5:30   0.00   33.8    46    6.6   242    11.0   786.0    0.00 
 109    5:40   0.01   38.1    40    4.2   272     6.6   786.0    0.00 
 109    5:50   0.03   34.9    45    4.0   328     6.6   786.1    0.00 
 109    6:00   0.08   35.0    46    1.9   336     4.7   786.2    0.00 
 109    6:10   0.12   38.6    41    3.7   288     7.7   786.3    0.00 
 109    6:20   0.15   43.6    35    0.8   320     4.0   786.4    0.00 
 109    6:30   0.15   46.2    32    4.5   273     6.9   786.4    0.00 
 109    6:40   0.20   48.4    29    4.0   265     6.6   786.4    0.00 
 109    6:50   0.23   50.6    26    4.9   267     8.8   786.3    0.00 
 109    7:00   0.29   51.5    24    5.9   286    10.7   786.3    0.00 
 109    7:10   0.33   51.9    24    6.3   284    10.0   786.1    0.00 
 109    7:20   0.36   53.0    24    6.4   278    12.5   786.1    0.00 
 109    7:30   0.41   53.3    23    6.6   289    11.8   785.9    0.00 
 109    7:40   0.45   53.5    23    6.5   290    11.3   785.8    0.00 
 109    7:50   0.48   54.0    23    6.5   290    10.2   785.7    0.00 
 109    8:00   0.52   54.6    22    6.7   280    13.7   785.6    0.00 
 109    8:10   0.52   55.7    22    5.3   286    11.8   785.4    0.00 
 109    8:20   0.58   56.5    21    5.2   289    10.1   785.4    0.00 
 109    8:30   0.61   56.6    21    5.8   306    10.6   785.4    0.00 
 109    8:40   0.65   56.6    21    5.7   298    11.2   785.3    0.00 
 109    8:50   0.68   57.9    20    3.1   308     6.6   785.2    0.00 
 109    9:00   0.71   58.3    19    3.1    20     7.5   785.2    0.00 
 109    9:10   0.74   59.1    19    3.2   228     7.3   785.2    0.00 
 109    9:20   0.76   60.8    18    3.2    49     6.2   785.2    0.00 
 109    9:30   0.79   60.7    18    3.2    58     8.1   785.3    0.00 
 109    9:40   0.81   60.9    18    3.2    69     6.8   785.3    0.00 
 109    9:50   0.84   60.0    19    5.1    46     9.2   785.3    0.00 
 109   10:00   0.86   61.2    19    4.2    74     8.7   785.2    0.00 

Return to SNARL Reserve graphs page.


Western Regional Climate Center,wrcc@dri.edu